Time;durP1;ratioP1;P1;durP2;ratioP2;P2;SDS_P1;SDS_P2;PMS_P1;PMS_P2;Temp;Humidity;BMP_temperature;BMP_pressure;BME280_temperature;BME280_humidity;BME280_pressure;Samples;Min_cycle;Max_cycle;Signal;HPM_P1;HPM_P2
2022/09/05 00:00:29;;;;;;;3.53;2.10;;;20.70;65.00;;;;;;4132933;28;20381;-86
2022/09/05 00:02:32;;;;;;;2.92;1.95;;;20.60;64.70;;;;;;4132187;28;20050;-86
2022/09/05 00:04:38;;;;;;;5.75;2.20;;;20.50;64.90;;;;;;4115865;28;20054;-86
2022/09/05 00:06:52;;;;;;;3.38;2.22;;;20.50;65.30;;;;;;4115719;28;20139;-86
2022/09/05 00:09:18;;;;;;;4.13;1.90;;;20.50;65.30;;;;;;4133239;28;20089;-85
2022/09/05 00:11:50;;;;;;;4.88;2.30;;;20.50;65.80;;;;;;4133967;28;20440;-86
2022/09/05 00:14:28;;;;;;;4.72;2.33;;;20.40;66.00;;;;;;4131892;28;20567;-86
2022/09/05 00:16:53;;;;;;;6.03;2.20;;;20.40;66.20;;;;;;4148211;28;20088;-85
2022/09/05 00:19:09;;;;;;;4.55;2.17;;;20.30;66.10;;;;;;4132001;28;20417;-86
2022/09/05 00:21:29;;;;;;;2.90;2.25;;;20.30;66.20;;;;;;4131786;28;20058;-86
2022/09/05 00:23:58;;;;;;;5.90;2.67;;;20.30;66.40;;;;;;4133011;28;20058;-86
2022/09/05 00:26:31;;;;;;;4.25;2.70;;;20.20;66.70;;;;;;4131491;28;20625;-86
2022/09/05 00:29:13;;;;;;;2.88;2.40;;;20.20;66.80;;;;;;4121106;28;20065;-85
2022/09/05 00:32:07;;;;;;;4.45;2.10;;;20.20;67.10;;;;;;4112325;28;20056;-85
2022/09/05 00:34:44;;;;;;;7.57;2.90;;;20.10;67.30;;;;;;4115023;28;20050;-85
2022/09/05 00:36:48;;;;;;;5.45;2.75;;;20.10;67.20;;;;;;4128697;28;20056;-85
2022/09/05 00:38:59;;;;;;;5.70;2.55;;;20.00;66.70;;;;;;4132592;28;20440;-84
2022/09/05 00:41:03;;;;;;;5.40;2.60;;;20.00;67.30;;;;;;4105151;28;1144564;-85
2022/09/05 00:43:09;;;;;;;7.80;2.58;;;20.00;67.20;;;;;;4132299;28;20058;-86
2022/09/05 00:45:15;;;;;;;4.30;2.25;;;20.00;67.30;;;;;;4149527;28;20050;-85
2022/09/05 00:47:26;;;;;;;7.13;2.40;;;19.90;67.50;;;;;;4149831;28;20054;-85
2022/09/05 00:49:58;;;;;;;3.92;2.47;;;19.90;67.90;;;;;;4132731;28;20058;-85
2022/09/05 00:52:24;;;;;;;5.03;2.20;;;19.90;67.80;;;;;;4148646;28;20492;-85
2022/09/05 00:54:52;;;;;;;4.80;2.13;;;19.90;68.30;;;;;;4149731;28;20078;-85
2022/09/05 00:57:06;;;;;;;5.32;2.15;;;19.80;68.50;;;;;;4149172;28;20124;-85
2022/09/05 00:59:35;;;;;;;4.90;2.40;;;19.80;68.40;;;;;;4132350;28;20500;-85
2022/09/05 01:02:10;;;;;;;3.88;2.15;;;19.70;68.80;;;;;;4150164;28;20128;-85
2022/09/05 01:04:31;;;;;;;3.75;2.65;;;19.70;69.10;;;;;;4084235;29;20558;-86
2022/09/05 01:06:52;;;;;;;6.78;2.40;;;19.60;68.70;;;;;;4132528;28;20494;-85
2022/09/05 01:09:12;;;;;;;4.93;2.38;;;19.60;68.80;;;;;;4149635;28;20050;-85
2022/09/05 01:11:47;;;;;;;2.63;1.98;;;19.50;69.30;;;;;;4133212;28;20054;-85
2022/09/05 01:14:09;;;;;;;5.32;2.30;;;19.50;69.90;;;;;;4132972;28;20088;-85
2022/09/05 01:16:24;;;;;;;6.00;2.38;;;19.50;69.10;;;;;;4150354;28;20042;-84
2022/09/05 01:19:04;;;;;;;5.38;2.65;;;19.40;69.20;;;;;;4150242;28;20463;-85
2022/09/05 01:21:39;;;;;;;4.30;2.42;;;19.40;70.30;;;;;;4132791;28;20381;-85
2022/09/05 01:23:56;;;;;;;5.55;2.30;;;19.40;70.40;;;;;;4148023;28;20054;-85
2022/09/05 01:26:02;;;;;;;4.35;2.30;;;19.40;70.10;;;;;;4150378;28;20042;-86
2022/09/05 01:28:03;;;;;;;5.35;2.92;;;19.30;69.90;;;;;;4132897;28;20054;-85
2022/09/05 01:30:32;;;;;;;5.43;2.53;;;19.30;69.80;;;;;;4150044;28;20053;-85
2022/09/05 01:32:48;;;;;;;2.75;2.22;;;19.30;70.80;;;;;;4150213;28;20112;-85
2022/09/05 01:35:19;;;;;;;4.30;2.10;;;19.30;70.50;;;;;;4136517;28;20053;-85
2022/09/05 01:37:44;;;;;;;3.72;2.38;;;19.20;70.90;;;;;;4153546;28;20096;-86
2022/09/05 01:40:06;;;;;;;5.78;2.63;;;19.20;71.20;;;;;;4135550;28;20054;-85
2022/09/05 01:42:39;;;;;;;3.25;2.33;;;19.10;71.40;;;;;;4163985;28;20458;-85
2022/09/05 01:44:55;;;;;;;4.97;2.53;;;19.10;71.60;;;;;;4156631;28;20054;-85
2022/09/05 01:47:14;;;;;;;5.85;2.58;;;19.10;71.00;;;;;;4147619;28;20048;-85
2022/09/05 01:49:32;;;;;;;5.30;2.38;;;19.10;71.00;;;;;;4165447;28;20068;-85
2022/09/05 01:51:55;;;;;;;3.63;2.60;;;19.10;71.60;;;;;;4147843;28;20112;-86
2022/09/05 01:54:18;;;;;;;4.97;2.60;;;19.00;72.00;;;;;;4131582;28;20054;-85
2022/09/05 01:56:34;;;;;;;3.33;2.85;;;19.00;72.20;;;;;;4165421;28;20049;-85
2022/09/05 01:58:50;;;;;;;3.63;2.72;;;19.00;71.70;;;;;;4165378;28;20045;-85
2022/09/05 02:01:26;;;;;;;3.88;2.67;;;19.00;72.20;;;;;;4164719;28;20519;-85
2022/09/05 02:03:35;;;;;;;6.20;2.85;;;18.90;72.80;;;;;;4165125;28;20049;-85
2022/09/05 02:05:57;;;;;;;3.97;2.95;;;18.90;72.50;;;;;;4165123;28;20050;-85
2022/09/05 02:08:14;;;;;;;4.70;2.30;;;18.80;72.90;;;;;;4164781;28;20045;-85
2022/09/05 02:10:46;;;;;;;6.07;2.60;;;18.80;73.10;;;;;;4164964;28;20398;-85
2022/09/05 02:12:56;;;;;;;6.32;2.75;;;18.80;73.20;;;;;;4165076;28;20097;-85
2022/09/05 02:15:03;;;;;;;3.88;2.80;;;18.70;72.80;;;;;;4147153;28;20524;-85
2022/09/05 02:17:45;;;;;;;4.75;2.80;;;18.60;73.10;;;;;;4131322;28;20106;-86
2022/09/05 02:19:51;;;;;;;3.88;2.40;;;18.60;74.10;;;;;;4150599;28;20208;-86
2022/09/05 02:22:12;;;;;;;3.90;2.45;;;18.60;73.50;;;;;;4146784;28;20038;-85
2022/09/05 02:24:23;;;;;;;5.07;2.33;;;18.50;73.60;;;;;;4147276;28;20065;-86
2022/09/05 02:26:33;;;;;;;4.35;2.40;;;18.50;73.80;;;;;;4146887;28;20053;-86
2022/09/05 02:28:52;;;;;;;3.85;2.35;;;18.50;74.00;;;;;;4147015;28;20050;-86
2022/09/05 02:31:00;;;;;;;7.00;2.85;;;18.50;74.10;;;;;;4163950;28;20045;-86
2022/09/05 02:33:29;;;;;;;3.92;2.90;;;18.50;74.10;;;;;;4164699;28;20057;-86
2022/09/05 02:35:44;;;;;;;5.30;2.90;;;18.50;75.20;;;;;;4164675;28;20407;-85
2022/09/05 02:38:10;;;;;;;4.97;2.80;;;18.50;74.40;;;;;;4147007;28;20046;-86
2022/09/05 02:40:35;;;;;;;4.18;2.67;;;18.40;74.50;;;;;;4130705;28;20071;-86
2022/09/05 02:42:41;;;;;;;3.47;2.70;;;18.30;75.20;;;;;;4148686;28;20397;-86
2022/09/05 02:45:20;;;;;;;4.40;2.60;;;18.30;74.80;;;;;;4130292;28;20077;-86
2022/09/05 02:47:44;;;;;;;6.13;2.65;;;18.30;75.10;;;;;;4129725;28;20066;-86
2022/09/05 02:50:19;;;;;;;5.75;2.50;;;18.20;75.40;;;;;;4130203;28;20038;-86
2022/09/05 02:52:25;;;;;;;3.80;2.50;;;18.20;75.70;;;;;;4147495;28;20093;-84
2022/09/05 02:54:38;;;;;;;4.10;2.90;;;18.10;75.00;;;;;;4131194;28;20038;-85
2022/09/05 02:56:53;;;;;;;4.93;2.90;;;18.10;75.60;;;;;;4115505;28;20146;-85
2022/09/05 02:59:00;;;;;;;5.57;2.92;;;18.10;76.10;;;;;;4147969;28;20464;-85
2022/09/05 03:01:30;;;;;;;5.60;2.97;;;18.00;75.70;;;;;;4130500;28;20093;-85
2022/09/05 03:03:53;;;;;;;5.03;2.85;;;18.00;76.60;;;;;;4146662;28;20503;-86
2022/09/05 03:06:24;;;;;;;4.30;2.65;;;18.00;76.60;;;;;;4130644;28;20039;-85
2022/09/05 03:08:52;;;;;;;4.50;2.83;;;17.90;76.60;;;;;;4147281;28;20459;-85
2022/09/05 03:11:03;;;;;;;5.15;2.63;;;17.90;76.60;;;;;;4163602;28;20045;-85
2022/09/05 03:13:42;;;;;;;4.30;2.72;;;17.90;76.60;;;;;;4164122;28;20091;-86
2022/09/05 03:15:43;;;;;;;;;;;17.80;77.20;;;;;;4164542;28;20407;-86
2022/09/05 03:18:18;;;;;;;7.35;2.70;;;17.80;77.50;;;;;;4154842;28;19929;-86
2022/09/05 03:20:50;;;;;;;5.15;3.10;;;17.80;77.10;;;;;;4146654;28;20539;-86
2022/09/05 03:23:23;;;;;;;5.00;2.65;;;17.70;76.50;;;;;;4146302;28;20046;-85
2022/09/05 03:25:41;;;;;;;6.28;2.78;;;17.70;77.30;;;;;;4146552;28;20056;-85
2022/09/05 03:28:17;;;;;;;3.80;2.65;;;17.60;77.20;;;;;;4163969;28;20091;-85
2022/09/05 03:30:40;;;;;;;4.82;2.90;;;17.60;78.10;;;;;;4110764;28;20042;-85
2022/09/05 03:33:01;;;;;;;3.85;2.55;;;17.50;77.70;;;;;;4146175;28;20439;-85
2022/09/05 03:35:17;;;;;;;4.35;2.70;;;17.50;77.50;;;;;;4134210;28;20519;-86
2022/09/05 03:37:37;;;;;;;3.28;2.58;;;17.50;77.50;;;;;;4146355;28;20050;-84
2022/09/05 03:39:53;;;;;;;5.93;3.88;;;17.50;78.40;;;;;;4129715;28;20050;-86
2022/09/05 03:42:05;;;;;;;5.55;3.10;;;17.40;78.30;;;;;;4145984;28;20049;-86
2022/09/05 03:44:24;;;;;;;5.07;3.67;;;17.40;78.40;;;;;;4163649;28;20060;-86
2022/09/05 03:47:03;;;;;;;5.95;2.97;;;17.40;78.90;;;;;;4129776;28;20489;-86
2022/09/05 03:49:17;;;;;;;3.90;2.75;;;17.40;78.90;;;;;;4146187;28;20046;-86
2022/09/05 03:51:30;;;;;;;4.65;2.85;;;17.40;78.50;;;;;;4146472;28;20046;-86
2022/09/05 03:53:42;;;;;;;4.93;3.00;;;17.40;78.90;;;;;;4163405;28;20550;-86
2022/09/05 03:56:11;;;;;;;7.28;2.95;;;17.30;78.60;;;;;;4163771;28;20048;-85
2022/09/05 03:58:50;;;;;;;3.97;2.80;;;17.30;79.00;;;;;;4146096;28;20054;-85
2022/09/05 04:01:03;;;;;;;5.68;3.42;;;17.30;79.30;;;;;;4163788;28;20133;-86
2022/09/05 04:03:25;;;;;;;4.95;3.05;;;17.30;79.10;;;;;;4163704;28;20075;-85
2022/09/05 04:05:34;;;;;;;6.13;2.80;;;17.30;79.30;;;;;;4146149;28;20576;-85
2022/09/05 04:08:10;;;;;;;5.38;2.90;;;17.20;79.80;;;;;;4163635;28;20475;-85
2022/09/05 04:10:25;;;;;;;7.15;3.00;;;17.20;79.80;;;;;;4114731;28;20050;-85
2022/09/05 04:12:32;;;;;;;4.97;3.00;;;17.10;79.40;;;;;;4134585;28;20054;-85
2022/09/05 04:14:48;;;;;;;4.28;3.10;;;17.10;79.60;;;;;;4147102;28;20057;-85
2022/09/05 04:16:54;;;;;;;6.65;2.90;;;17.10;80.10;;;;;;4147185;28;20400;-85
2022/09/05 04:19:04;;;;;;;5.28;2.72;;;17.10;79.80;;;;;;4129107;28;20054;-85
2022/09/05 04:21:14;;;;;;;5.63;2.92;;;17.00;79.80;;;;;;4147285;28;20046;-85
2022/09/05 04:23:31;;;;;;;3.72;2.60;;;17.00;80.30;;;;;;4146975;28;20045;-85
2022/09/05 04:26:04;;;;;;;6.75;3.22;;;17.00;80.70;;;;;;4147026;28;20092;-86
2022/09/05 04:28:26;;;;;;;3.75;2.80;;;17.00;81.20;;;;;;4145753;28;20124;-85
2022/09/05 04:30:42;;;;;;;5.38;3.70;;;17.00;80.70;;;;;;4149094;28;20053;-85
2022/09/05 04:33:21;;;;;;;4.03;2.65;;;16.90;80.80;;;;;;4149764;28;20495;-86
2022/09/05 04:35:45;;;;;;;5.25;2.78;;;16.90;81.40;;;;;;4150273;28;20427;-85
2022/09/05 04:38:14;;;;;;;4.70;2.95;;;16.90;81.10;;;;;;4132805;28;20046;-86
2022/09/05 04:40:33;;;;;;;4.85;3.38;;;16.80;81.10;;;;;;4139108;28;20045;-86
2022/09/05 04:42:38;;;;;;;7.28;3.08;;;16.80;81.60;;;;;;4132432;28;20053;-86
2022/09/05 04:45:05;;;;;;;5.75;3.13;;;16.80;81.30;;;;;;4149672;28;20060;-85
2022/09/05 04:47:18;;;;;;;4.75;3.05;;;16.70;82.00;;;;;;4132218;28;20054;-85
2022/09/05 04:49:32;;;;;;;5.20;3.55;;;16.70;81.70;;;;;;4132313;28;20543;-85
2022/09/05 04:52:28;;;;;;;6.72;3.10;;;16.70;82.60;;;;;;4132096;28;20113;-85
2022/09/05 04:54:32;;;;;;;6.70;3.60;;;16.70;82.80;;;;;;4131548;28;20535;-86
2022/09/05 04:56:39;;;;;;;4.47;2.92;;;16.70;82.00;;;;;;4149111;28;20046;-86
2022/09/05 04:58:53;;;;;;;4.25;2.70;;;16.70;82.20;;;;;;4149943;28;20425;-85
2022/09/05 05:01:00;;;;;;;5.00;3.10;;;16.60;82.50;;;;;;4132813;28;20051;-85
2022/09/05 05:03:13;;;;;;;6.43;3.63;;;16.70;82.50;;;;;;4149896;28;20129;-86
2022/09/05 05:05:22;;;;;;;8.20;3.47;;;16.60;82.80;;;;;;4149644;28;20046;-86
2022/09/05 05:07:45;;;;;;;6.45;3.30;;;16.60;82.70;;;;;;4132127;28;20055;-86
2022/09/05 05:09:53;;;;;;;6.30;3.50;;;16.70;82.70;;;;;;4145966;28;20066;-85
2022/09/05 05:12:36;;;;;;;4.97;3.08;;;16.60;82.80;;;;;;4150524;28;20058;-86
2022/09/05 05:14:47;;;;;;;3.70;2.83;;;16.60;83.60;;;;;;4132270;28;20058;-86
2022/09/05 05:17:06;;;;;;;6.43;3.65;;;16.70;83.10;;;;;;4134083;28;20118;-85
2022/09/05 05:19:12;;;;;;;;;;;16.60;83.20;;;;;;4154422;28;20073;-86
2022/09/05 05:21:19;;;;;;;6.13;3.00;;;16.60;84.50;;;;;;4135586;28;19930;-86
2022/09/05 05:23:40;;;;;;;10.02;3.58;;;16.60;83.00;;;;;;4153390;28;20037;-85
2022/09/05 05:25:53;;;;;;;5.00;2.97;;;16.60;83.40;;;;;;4152595;28;20054;-86
2022/09/05 05:28:11;;;;;;;7.35;3.17;;;16.60;83.60;;;;;;4151438;28;20057;-86
2022/09/05 05:30:27;;;;;;;20.17;4.38;;;16.60;83.70;;;;;;4151363;28;20133;-85
2022/09/05 05:32:39;;;;;;;5.22;3.22;;;16.60;83.80;;;;;;4131928;28;20112;-84
2022/09/05 05:34:48;;;;;;;4.40;3.58;;;16.60;83.90;;;;;;4175276;28;20060;-85
2022/09/05 05:37:05;;;;;;;4.63;3.40;;;16.60;83.90;;;;;;4164983;28;20057;-85
2022/09/05 05:39:38;;;;;;;8.40;3.17;;;16.60;84.10;;;;;;4168367;28;20125;-85
2022/09/05 05:41:52;;;;;;;6.10;3.30;;;16.60;84.60;;;;;;4149995;28;20050;-85
2022/09/05 05:43:54;;;;;;;4.95;3.58;;;16.60;84.20;;;;;;4151829;28;20488;-85
2022/09/05 05:45:59;;;;;;;5.95;3.65;;;16.60;83.80;;;;;;4136010;28;20125;-85
2022/09/05 05:48:06;;;;;;;5.65;3.78;;;16.70;83.90;;;;;;4170218;28;20073;-85
2022/09/05 05:50:33;;;;;;;3.95;3.30;;;16.60;84.00;;;;;;4150542;28;20057;-85
2022/09/05 05:53:08;;;;;;;7.90;3.30;;;16.70;84.40;;;;;;4166027;28;20072;-85
2022/09/05 05:55:23;;;;;;;5.20;3.50;;;16.70;85.10;;;;;;4147716;28;20049;-85
2022/09/05 05:57:33;;;;;;;5.28;3.30;;;16.70;84.60;;;;;;4164956;28;20046;-85
2022/09/05 05:59:49;;;;;;;4.25;3.70;;;16.70;84.30;;;;;;4163972;28;20124;-85
2022/09/05 06:02:01;;;;;;;5.78;4.00;;;16.80;84.40;;;;;;4164441;28;20052;-84
2022/09/05 06:04:28;;;;;;;5.70;4.15;;;16.80;84.50;;;;;;4164219;28;20051;-85
2022/09/05 06:07:14;;;;;;;5.03;3.45;;;16.80;84.40;;;;;;4147679;28;20049;-85
2022/09/05 06:09:48;;;;;;;7.72;4.55;;;16.80;84.60;;;;;;4163876;28;20091;-85
2022/09/05 06:11:54;;;;;;;6.35;4.18;;;16.90;84.70;;;;;;4160025;28;20045;-85
2022/09/05 06:14:18;;;;;;;10.90;4.18;;;16.90;84.20;;;;;;4146556;28;20050;-85
2022/09/05 06:16:31;;;;;;;6.30;4.32;;;16.80;84.60;;;;;;4164121;28;20041;-85
2022/09/05 06:19:10;;;;;;;8.85;4.20;;;16.90;84.10;;;;;;4164493;28;20107;-85
2022/09/05 06:21:36;;;;;;;9.10;4.07;;;16.90;84.60;;;;;;4146839;28;20544;-85
2022/09/05 06:23:49;;;;;;;4.97;3.97;;;16.90;84.50;;;;;;4164294;28;20045;-84
2022/09/05 06:26:02;;;;;;;5.80;3.38;;;17.00;84.50;;;;;;4145832;28;20078;-85
2022/09/05 06:28:05;;;;;;;7.47;3.78;;;17.10;84.30;;;;;;4164280;28;20483;-84
2022/09/05 06:30:18;;;;;;;10.45;3.83;;;17.10;84.10;;;;;;4146451;28;20046;-84
2022/09/05 06:32:35;;;;;;;6.10;4.40;;;17.20;84.20;;;;;;4138975;28;20057;-84
2022/09/05 06:35:02;;;;;;;5.78;4.47;;;17.30;84.60;;;;;;4164544;28;20041;-85
2022/09/05 06:37:09;;;;;;;9.32;3.78;;;17.40;84.60;;;;;;4164919;28;20049;-84
2022/09/05 06:39:24;;;;;;;5.60;4.22;;;17.50;84.10;;;;;;4164885;28;20120;-84
2022/09/05 06:41:25;;;;;;;7.53;4.18;;;17.60;84.20;;;;;;4163685;28;20462;-84
2022/09/05 06:44:01;;;;;;;6.97;4.55;;;17.70;83.90;;;;;;4164522;28;20053;-84
2022/09/05 06:46:35;;;;;;;6.40;4.10;;;17.90;84.20;;;;;;4164856;28;20403;-84
2022/09/05 06:48:54;;;;;;;7.38;3.38;;;18.00;83.80;;;;;;4164102;28;20073;-84
2022/09/05 06:51:15;;;;;;;8.55;3.92;;;18.20;83.90;;;;;;4164025;28;20053;-84
2022/09/05 06:53:22;;;;;;;10.05;4.20;;;18.30;83.40;;;;;;4164535;28;20054;-85
2022/09/05 06:55:49;;;;;;;6.22;4.32;;;18.50;82.60;;;;;;4164193;28;20041;-86
2022/09/05 06:58:34;;;;;;;5.55;3.45;;;18.60;82.90;;;;;;4163013;28;20085;-87
2022/09/05 07:00:43;;;;;;;5.00;3.60;;;18.80;82.50;;;;;;4113611;28;20567;-86
2022/09/05 07:03:00;;;;;;;6.47;4.03;;;19.00;81.70;;;;;;4114168;28;20519;-86
2022/09/05 07:05:10;;;;;;;5.50;3.80;;;19.10;81.60;;;;;;4151672;28;20050;-85
2022/09/05 07:07:37;;;;;;;4.88;3.72;;;19.30;81.10;;;;;;4147289;28;20503;-85
2022/09/05 07:09:59;;;;;;;5.47;3.70;;;19.40;80.70;;;;;;4153777;28;20488;-85
2022/09/05 07:12:26;;;;;;;7.20;3.55;;;19.40;80.60;;;;;;4148303;28;20116;-84
2022/09/05 07:14:47;;;;;;;6.07;3.58;;;19.40;80.40;;;;;;4145204;28;20077;-84
2022/09/05 07:17:14;;;;;;;5.95;3.80;;;19.40;80.40;;;;;;4162390;28;20499;-85
2022/09/05 07:19:27;;;;;;;7.03;3.58;;;19.40;80.40;;;;;;4134330;28;20058;-84
2022/09/05 07:22:13;;;;;;;8.25;3.50;;;19.50;80.20;;;;;;4156315;28;20574;-84
2022/09/05 07:24:22;;;;;;;5.80;3.30;;;19.70;80.50;;;;;;4167171;28;20102;-85
2022/09/05 07:26:24;;;;;;;8.20;3.10;;;19.80;79.80;;;;;;4154099;28;20042;-85
2022/09/05 07:28:26;;;;;;;7.60;3.58;;;20.00;79.60;;;;;;4130872;28;20057;-84
2022/09/05 07:30:27;;;;;;;7.15;3.63;;;20.20;79.60;;;;;;4152460;28;20467;-84
2022/09/05 07:32:39;;;;;;;10.98;3.20;;;20.40;79.00;;;;;;4143453;28;20045;-85
2022/09/05 07:34:44;;;;;;;5.13;3.20;;;20.60;78.50;;;;;;4148562;28;20117;-85
2022/09/05 07:36:47;;;;;;;9.20;3.25;;;20.70;78.30;;;;;;4144779;28;20048;-85
2022/09/05 07:38:55;;;;;;;5.68;3.40;;;21.00;78.00;;;;;;4146738;28;20511;-85
2022/09/05 07:41:09;;;;;;;9.43;3.47;;;21.00;77.70;;;;;;4130643;28;20073;-84
2022/09/05 07:43:17;;;;;;;9.30;3.65;;;21.00;77.30;;;;;;4143543;28;20288;-85
2022/09/05 07:45:24;;;;;;;11.47;3.57;;;21.20;77.00;;;;;;4148412;28;20046;-86
2022/09/05 07:47:32;;;;;;;6.00;3.22;;;21.40;76.70;;;;;;4147949;28;20133;-84
2022/09/05 07:49:36;;;;;;;5.55;3.20;;;21.50;76.50;;;;;;4148253;28;20045;-84
2022/09/05 07:51:47;;;;;;;5.75;3.97;;;21.70;76.60;;;;;;4127295;28;20054;-86
2022/09/05 07:53:51;;;;;;;8.98;4.07;;;21.90;76.10;;;;;;4138690;28;20050;-85
2022/09/05 07:55:57;;;;;;;8.68;3.10;;;22.00;75.60;;;;;;4131069;28;20054;-85
2022/09/05 07:58:01;;;;;;;8.55;3.20;;;22.10;74.90;;;;;;4142849;28;20097;-85
2022/09/05 08:00:10;;;;;;;5.82;3.50;;;22.10;74.90;;;;;;4141575;28;20048;-85
2022/09/05 08:02:11;;;;;;;5.65;3.20;;;22.20;74.60;;;;;;4145616;28;20520;-85
2022/09/05 08:04:21;;;;;;;3.85;3.15;;;22.40;74.40;;;;;;4142172;28;20050;-85
2022/09/05 08:06:24;;;;;;;5.47;3.15;;;22.70;74.70;;;;;;4138183;28;20046;-86
2022/09/05 08:08:37;;;;;;;4.40;3.00;;;23.00;74.20;;;;;;4147877;28;20435;-86
2022/09/05 08:11:08;;;;;;;5.18;3.40;;;23.40;74.00;;;;;;4137343;28;20062;-86
2022/09/05 08:13:24;;;;;;;6.68;3.00;;;23.60;72.20;;;;;;4146397;28;20484;-86
2022/09/05 08:15:27;;;;;;;5.18;2.95;;;23.70;70.40;;;;;;4148499;28;20108;-85
2022/09/05 08:17:29;;;;;;;8.07;2.70;;;23.80;71.20;;;;;;4136964;28;20077;-84
2022/09/05 08:19:29;;;;;;;7.47;3.15;;;23.90;70.90;;;;;;4144875;28;20556;-84
2022/09/05 08:21:47;;;;;;;4.40;2.58;;;24.10;70.90;;;;;;4128890;28;20099;-85
2022/09/05 08:24:01;;;;;;;3.92;2.83;;;24.40;70.90;;;;;;4146731;28;20444;-85
2022/09/05 08:26:34;;;;;;;5.05;2.95;;;24.60;70.10;;;;;;4145928;28;20081;-84
2022/09/05 08:28:54;;;;;;;3.97;2.45;;;24.80;68.80;;;;;;4137171;28;20482;-85
2022/09/05 08:31:06;;;;;;;6.53;3.03;;;25.00;68.90;;;;;;4138338;28;20492;-85
2022/09/05 08:33:18;;;;;;;5.32;3.25;;;25.10;68.20;;;;;;4133606;28;20046;-85
2022/09/05 08:35:25;;;;;;;6.63;3.03;;;25.00;67.70;;;;;;4131919;28;20520;-86
2022/09/05 08:37:27;;;;;;;4.88;2.80;;;24.90;68.00;;;;;;4143464;28;20040;-85
2022/09/05 08:39:32;;;;;;;4.85;2.78;;;25.10;68.20;;;;;;4148675;28;20125;-85
2022/09/05 08:42:07;;;;;;;4.03;3.17;;;25.40;67.80;;;;;;4149467;28;20082;-85
2022/09/05 08:44:26;;;;;;;4.30;2.85;;;25.40;67.10;;;;;;4096235;28;20132;-84
2022/09/05 08:46:44;;;;;;;5.05;3.40;;;25.50;67.80;;;;;;4132868;28;20061;-84
2022/09/05 08:49:26;;;;;;;3.85;2.75;;;25.60;66.10;;;;;;4144799;28;20049;-85
2022/09/05 08:51:49;;;;;;;3.30;2.67;;;25.50;66.10;;;;;;4144942;28;20053;-85
2022/09/05 08:54:38;;;;;;;7.13;3.30;;;25.90;67.40;;;;;;4151990;28;20054;-85
2022/09/05 08:56:46;;;;;;;7.63;2.40;;;26.10;66.30;;;;;;4123148;28;20103;-86
2022/09/05 08:59:07;;;;;;;7.13;3.22;;;26.20;66.30;;;;;;4152351;28;20053;-85
2022/09/05 09:01:20;;;;;;;9.93;2.58;;;26.40;66.00;;;;;;4134325;28;20136;-86
2022/09/05 09:03:41;;;;;;;4.32;2.30;;;26.60;66.30;;;;;;4161315;28;20053;-86
2022/09/05 09:05:50;;;;;;;5.68;2.80;;;26.80;64.80;;;;;;4149827;28;20076;-85
2022/09/05 09:08:32;;;;;;;7.13;2.60;;;27.00;64.50;;;;;;4153256;28;20033;-85
2022/09/05 09:10:39;;;;;;;6.15;2.70;;;27.20;63.80;;;;;;4111851;28;20057;-85
2022/09/05 09:13:03;;;;;;;12.63;2.83;;;27.40;63.00;;;;;;4150099;28;20471;-85
2022/09/05 09:15:10;;;;;;;8.60;2.75;;;27.50;62.00;;;;;;4168188;28;20049;-85
2022/09/05 09:17:29;;;;;;;8.02;2.58;;;27.80;62.00;;;;;;4150265;28;20065;-85
2022/09/05 09:19:56;;;;;;;4.30;2.50;;;27.80;59.60;;;;;;4134317;28;20097;-86
2022/09/05 09:22:09;;;;;;;9.50;2.85;;;28.10;60.90;;;;;;4133705;28;20050;-85
2022/09/05 09:24:35;;;;;;;6.68;2.35;;;28.40;59.70;;;;;;4155218;28;20114;-86
2022/09/05 09:27:04;;;;;;;5.57;2.17;;;28.60;59.80;;;;;;4133779;28;20093;-86
2022/09/05 09:29:08;;;;;;;3.80;2.28;;;29.10;60.20;;;;;;4149961;28;20042;-86
2022/09/05 09:31:27;;;;;;;3.95;2.25;;;29.80;59.80;;;;;;4166912;28;20041;-86
2022/09/05 09:33:44;;;;;;;13.00;2.78;;;30.30;58.80;;;;;;4167381;28;20041;-85
2022/09/05 09:35:51;;;;;;;5.35;2.00;;;30.70;57.00;;;;;;4168193;28;20053;-85
2022/09/05 09:38:07;;;;;;;3.97;2.30;;;31.00;57.40;;;;;;4168516;28;20053;-85
2022/09/05 09:40:47;;;;;;;7.65;2.30;;;31.20;57.10;;;;;;4150222;28;20061;-84
2022/09/05 09:42:56;;;;;;;4.70;2.10;;;31.40;54.50;;;;;;4135061;28;20053;-85
2022/09/05 09:45:03;;;;;;;8.52;2.30;;;31.40;56.00;;;;;;4162563;28;20117;-84
2022/09/05 09:47:13;;;;;;;3.40;2.40;;;31.70;56.30;;;;;;4138621;28;20535;-84
2022/09/05 09:49:53;;;;;;;5.47;2.00;;;31.60;55.60;;;;;;4154889;28;20049;-83
2022/09/05 09:52:15;;;;;;;4.30;2.30;;;31.10;54.10;;;;;;4166614;28;20054;-84
2022/09/05 09:54:48;;;;;;;4.15;2.60;;;30.70;53.50;;;;;;4167650;28;20045;-83
2022/09/05 09:57:44;;;;;;;5.80;2.00;;;30.60;54.20;;;;;;4157696;28;20084;-83
2022/09/05 10:00:22;;;;;;;4.25;2.25;;;30.50;55.50;;;;;;4084672;29;20134;-83
2022/09/05 10:02:43;;;;;;;3.95;1.88;;;30.40;55.50;;;;;;4154018;28;20053;-83
2022/09/05 10:05:12;;;;;;;4.68;1.63;;;30.60;54.70;;;;;;4141350;28;20446;-83
2022/09/05 10:07:28;;;;;;;3.28;2.22;;;30.70;57.20;;;;;;4164040;28;20097;-83
2022/09/05 10:09:46;;;;;;;5.57;1.70;;;31.00;55.50;;;;;;4127734;28;20058;-83
2022/09/05 10:12:26;;;;;;;4.10;2.03;;;31.10;54.00;;;;;;4150551;28;20042;-83
2022/09/05 10:15:00;;;;;;;9.73;2.28;;;31.00;53.60;;;;;;4133046;28;20046;-83
2022/09/05 10:17:39;;;;;;;4.30;1.77;;;31.10;54.40;;;;;;4149867;28;20050;-83
2022/09/05 10:19:51;;;;;;;;;;;31.20;54.10;;;;;;4122489;28;20508;-84
2022/09/05 10:22:09;;;;;;;5.10;1.90;;;31.10;51.90;;;;;;4116769;28;19922;-84
2022/09/05 10:24:37;;;;;;;6.03;1.60;;;31.00;54.50;;;;;;4133716;28;20046;-84
2022/09/05 10:27:05;;;;;;;5.03;1.80;;;31.10;54.10;;;;;;4143283;28;20054;-83
2022/09/05 10:29:19;;;;;;;3.72;1.67;;;31.50;54.80;;;;;;4167382;28;20308;-83
2022/09/05 10:31:35;;;;;;;1.70;1.60;;;31.60;53.70;;;;;;4168681;28;20046;-83
2022/09/05 10:33:53;;;;;;;7.40;1.73;;;31.50;53.70;;;;;;4165210;28;20442;-85
2022/09/05 10:36:14;;;;;;;6.15;1.92;;;31.60;53.80;;;;;;4166758;28;22492;-85
2022/09/05 10:38:34;;;;;;;3.47;1.67;;;31.80;53.80;;;;;;4134120;28;20161;-85
2022/09/05 10:40:39;;;;;;;6.43;1.90;;;32.10;52.60;;;;;;4153349;28;20053;-85
2022/09/05 10:42:52;;;;;;;2.85;1.48;;;32.30;52.70;;;;;;4162645;28;20419;-85
2022/09/05 10:44:57;;;;;;;3.80;1.58;;;32.70;51.80;;;;;;4156710;28;20048;-85
2022/09/05 10:47:27;;;;;;;4.40;1.70;;;32.80;52.30;;;;;;4160265;28;20092;-85
2022/09/05 10:49:33;;;;;;;3.38;1.40;;;33.00;51.60;;;;;;4161708;28;20399;-85
2022/09/05 10:51:58;;;;;;;2.47;1.90;;;33.50;51.50;;;;;;4155358;28;20041;-84
2022/09/05 10:54:28;;;;;;;5.25;1.85;;;33.90;51.20;;;;;;4149543;28;20115;-84
2022/09/05 10:56:55;;;;;;;2.45;1.60;;;34.10;49.90;;;;;;4164236;28;20444;-86
2022/09/05 10:59:00;;;;;;;6.35;2.05;;;34.30;49.20;;;;;;4149852;28;20088;-85
2022/09/05 11:01:20;;;;;;;13.45;2.17;;;34.40;49.70;;;;;;4150479;28;20042;-85
2022/09/05 11:03:31;;;;;;;4.10;1.67;;;34.30;47.30;;;;;;4149261;28;20492;-86
2022/09/05 11:05:38;;;;;;;4.75;1.60;;;33.90;47.40;;;;;;4166466;28;20125;-86
2022/09/05 11:07:51;;;;;;;7.20;1.60;;;33.60;48.00;;;;;;4166307;28;20114;-85
2022/09/05 11:10:01;;;;;;;1.88;1.35;;;33.50;48.40;;;;;;4165693;28;20050;-86
2022/09/05 11:12:09;;;;;;;3.75;1.90;;;33.50;49.60;;;;;;4166276;28;20120;-86
2022/09/05 11:14:48;;;;;;;3.03;1.63;;;33.90;48.80;;;;;;4166959;28;20056;-85
2022/09/05 11:16:53;;;;;;;4.10;1.70;;;34.00;47.90;;;;;;4166665;28;20049;-86
2022/09/05 11:19:06;;;;;;;2.15;1.38;;;34.10;48.10;;;;;;4149832;28;20566;-87
2022/09/05 11:21:38;;;;;;;2.63;1.58;;;34.20;48.10;;;;;;4132571;28;20039;-86
2022/09/05 11:23:45;;;;;;;5.00;2.08;;;34.40;49.10;;;;;;4166774;28;20067;-86
2022/09/05 11:26:02;;;;;;;2.58;1.60;;;34.70;47.20;;;;;;4164694;28;20092;-85
2022/09/05 11:28:16;;;;;;;2.35;1.90;;;35.00;46.90;;;;;;4116579;28;20103;-86
2022/09/05 11:30:30;;;;;;;2.08;1.50;;;35.00;47.10;;;;;;4151689;28;20488;-85
2022/09/05 11:32:37;;;;;;;6.38;1.83;;;35.10;46.40;;;;;;4150576;28;20046;-86
2022/09/05 11:35:16;;;;;;;2.13;1.70;;;35.00;46.80;;;;;;4133289;28;20042;-86
2022/09/05 11:37:41;;;;;;;1.70;1.50;;;34.80;46.70;;;;;;4150272;28;20042;-86
2022/09/05 11:40:07;;;;;;;4.60;1.38;;;34.80;46.00;;;;;;4152342;28;20041;-85
2022/09/05 11:42:37;;;;;;;2.35;1.25;;;35.00;47.40;;;;;;4123913;28;20053;-85
2022/09/05 11:45:04;;;;;;;2.45;1.60;;;35.20;45.20;;;;;;4143327;28;20041;-85
2022/09/05 11:47:44;;;;;;;4.68;1.60;;;35.20;46.30;;;;;;4151005;28;20049;-85
2022/09/05 11:50:09;;;;;;;4.95;1.58;;;35.60;46.10;;;;;;4125337;28;20423;-86
2022/09/05 11:52:40;;;;;;;1.60;1.30;;;35.90;45.60;;;;;;4136871;28;20157;-86
2022/09/05 11:54:55;;;;;;;3.10;1.40;;;36.20;45.30;;;;;;4151512;28;20064;-86
2022/09/05 11:57:34;;;;;;;4.35;1.83;;;36.20;45.40;;;;;;4137722;28;20043;-86
2022/09/05 12:00:12;;;;;;;1.42;1.20;;;36.30;44.40;;;;;;4138098;28;20129;-87
2022/09/05 12:02:34;;;;;;;2.92;1.58;;;36.00;44.90;;;;;;4155241;28;20069;-85
2022/09/05 12:07:36;;;;;;;6.22;1.77;;;35.80;44.10;;;;;;4137968;28;20050;-87